sensor_id;sensor_type;location;lat;lon;timestamp;P1;durP1;ratioP1;P2;durP2;ratioP2
30335;SDS011;17142;47.990;7.846;2023-08-06T00:01:13;2.80;;;2.10;;
30335;SDS011;17142;47.990;7.846;2023-08-06T00:03:41;3.27;;;2.40;;
30335;SDS011;17142;47.990;7.846;2023-08-06T00:06:07;3.83;;;1.33;;
30335;SDS011;17142;47.990;7.846;2023-08-06T00:08:32;2.90;;;2.00;;
30335;SDS011;17142;47.990;7.846;2023-08-06T00:10:58;2.80;;;2.30;;
30335;SDS011;17142;47.990;7.846;2023-08-06T00:13:24;2.97;;;1.93;;
30335;SDS011;17142;47.990;7.846;2023-08-06T00:15:49;3.23;;;1.90;;
30335;SDS011;17142;47.990;7.846;2023-08-06T00:18:17;2.83;;;1.83;;
30335;SDS011;17142;47.990;7.846;2023-08-06T00:20:43;2.40;;;2.20;;
30335;SDS011;17142;47.990;7.846;2023-08-06T00:23:09;3.30;;;2.10;;
30335;SDS011;17142;47.990;7.846;2023-08-06T00:25:34;4.00;;;2.00;;
30335;SDS011;17142;47.990;7.846;2023-08-06T00:28:02;6.77;;;2.23;;
30335;SDS011;17142;47.990;7.846;2023-08-06T00:30:31;3.93;;;2.23;;
30335;SDS011;17142;47.990;7.846;2023-08-06T00:32:59;3.40;;;2.23;;
30335;SDS011;17142;47.990;7.846;2023-08-06T00:35:25;5.03;;;2.60;;
30335;SDS011;17142;47.990;7.846;2023-08-06T00:37:53;5.07;;;2.10;;
30335;SDS011;17142;47.990;7.846;2023-08-06T00:40:19;2.60;;;2.00;;
30335;SDS011;17142;47.990;7.846;2023-08-06T00:42:47;3.63;;;2.47;;
30335;SDS011;17142;47.990;7.846;2023-08-06T00:45:15;2.10;;;1.77;;
30335;SDS011;17142;47.990;7.846;2023-08-06T00:47:41;11.10;;;1.93;;
30335;SDS011;17142;47.990;7.846;2023-08-06T00:50:07;2.40;;;1.80;;
30335;SDS011;17142;47.990;7.846;2023-08-06T00:52:38;2.03;;;1.83;;
30335;SDS011;17142;47.990;7.846;2023-08-06T00:55:07;3.10;;;2.00;;
30335;SDS011;17142;47.990;7.846;2023-08-06T00:57:33;4.33;;;2.00;;
30335;SDS011;17142;47.990;7.846;2023-08-06T00:59:59;2.30;;;1.77;;
30335;SDS011;17142;47.990;7.846;2023-08-06T01:02:29;2.63;;;1.57;;
30335;SDS011;17142;47.990;7.846;2023-08-06T01:04:55;2.13;;;1.70;;
30335;SDS011;17142;47.990;7.846;2023-08-06T01:12:45;2.80;;;2.00;;
30335;SDS011;17142;47.990;7.846;2023-08-06T01:15:21;2.87;;;1.90;;
30335;SDS011;17142;47.990;7.846;2023-08-06T01:17:52;1.77;;;1.50;;
30335;SDS011;17142;47.990;7.846;2023-08-06T01:20:18;2.90;;;1.30;;
30335;SDS011;17142;47.990;7.846;2023-08-06T01:22:43;3.80;;;2.10;;
30335;SDS011;17142;47.990;7.846;2023-08-06T01:25:11;1.93;;;1.40;;
30335;SDS011;17142;47.990;7.846;2023-08-06T01:27:44;5.03;;;1.80;;
30335;SDS011;17142;47.990;7.846;2023-08-06T01:30:17;1.77;;;1.20;;
30335;SDS011;17142;47.990;7.846;2023-08-06T01:32:45;1.77;;;1.10;;
30335;SDS011;17142;47.990;7.846;2023-08-06T01:35:15;2.00;;;1.57;;
30335;SDS011;17142;47.990;7.846;2023-08-06T01:37:42;1.90;;;1.43;;
30335;SDS011;17142;47.990;7.846;2023-08-06T01:40:11;1.73;;;1.33;;
30335;SDS011;17142;47.990;7.846;2023-08-06T01:42:40;2.70;;;1.63;;
30335;SDS011;17142;47.990;7.846;2023-08-06T01:45:06;1.83;;;1.47;;
30335;SDS011;17142;47.990;7.846;2023-08-06T01:47:33;3.90;;;1.50;;
30335;SDS011;17142;47.990;7.846;2023-08-06T01:49:59;3.57;;;1.00;;
30335;SDS011;17142;47.990;7.846;2023-08-06T01:52:25;2.00;;;1.50;;
30335;SDS011;17142;47.990;7.846;2023-08-06T01:54:54;2.07;;;1.10;;
30335;SDS011;17142;47.990;7.846;2023-08-06T01:57:20;2.17;;;1.30;;
30335;SDS011;17142;47.990;7.846;2023-08-06T01:59:45;2.17;;;1.47;;
30335;SDS011;17142;47.990;7.846;2023-08-06T02:02:11;2.20;;;1.13;;
30335;SDS011;17142;47.990;7.846;2023-08-06T02:04:37;1.97;;;1.60;;
30335;SDS011;17142;47.990;7.846;2023-08-06T02:07:03;1.57;;;1.00;;
30335;SDS011;17142;47.990;7.846;2023-08-06T02:09:28;1.63;;;1.43;;
30335;SDS011;17142;47.990;7.846;2023-08-06T02:11:54;5.03;;;1.40;;
30335;SDS011;17142;47.990;7.846;2023-08-06T02:14:20;4.20;;;1.57;;
30335;SDS011;17142;47.990;7.846;2023-08-06T02:16:45;2.03;;;1.83;;
30335;SDS011;17142;47.990;7.846;2023-08-06T02:19:11;7.30;;;1.47;;
30335;SDS011;17142;47.990;7.846;2023-08-06T02:21:37;3.17;;;1.70;;
30335;SDS011;17142;47.990;7.846;2023-08-06T02:24:02;7.60;;;2.27;;
30335;SDS011;17142;47.990;7.846;2023-08-06T02:26:34;6.17;;;1.60;;
30335;SDS011;17142;47.990;7.846;2023-08-06T02:29:04;1.43;;;0.93;;
30335;SDS011;17142;47.990;7.846;2023-08-06T02:31:32;2.37;;;1.20;;
30335;SDS011;17142;47.990;7.846;2023-08-06T02:34:05;2.97;;;1.47;;
30335;SDS011;17142;47.990;7.846;2023-08-06T02:36:33;2.77;;;1.50;;
30335;SDS011;17142;47.990;7.846;2023-08-06T02:38:59;1.40;;;0.90;;
30335;SDS011;17142;47.990;7.846;2023-08-06T02:41:24;1.80;;;1.70;;
30335;SDS011;17142;47.990;7.846;2023-08-06T02:43:52;2.00;;;1.03;;
30335;SDS011;17142;47.990;7.846;2023-08-06T02:46:17;8.67;;;1.70;;
30335;SDS011;17142;47.990;7.846;2023-08-06T02:48:43;2.10;;;1.20;;
30335;SDS011;17142;47.990;7.846;2023-08-06T02:51:11;2.17;;;1.67;;
30335;SDS011;17142;47.990;7.846;2023-08-06T02:53:39;1.30;;;1.20;;
30335;SDS011;17142;47.990;7.846;2023-08-06T02:56:05;1.10;;;0.70;;
30335;SDS011;17142;47.990;7.846;2023-08-06T02:58:33;3.10;;;0.93;;
30335;SDS011;17142;47.990;7.846;2023-08-06T03:01:05;1.10;;;0.70;;
30335;SDS011;17142;47.990;7.846;2023-08-06T03:03:32;1.37;;;0.73;;
30335;SDS011;17142;47.990;7.846;2023-08-06T03:06:01;1.40;;;1.30;;
30335;SDS011;17142;47.990;7.846;2023-08-06T03:08:26;1.47;;;1.00;;
30335;SDS011;17142;47.990;7.846;2023-08-06T03:10:53;1.47;;;0.87;;
30335;SDS011;17142;47.990;7.846;2023-08-06T03:13:21;6.20;;;1.17;;
30335;SDS011;17142;47.990;7.846;2023-08-06T03:15:56;3.60;;;1.10;;
30335;SDS011;17142;47.990;7.846;2023-08-06T03:18:22;2.27;;;0.53;;
30335;SDS011;17142;47.990;7.846;2023-08-06T03:20:49;0.60;;;0.50;;
30335;SDS011;17142;47.990;7.846;2023-08-06T03:23:15;0.60;;;0.60;;
30335;SDS011;17142;47.990;7.846;2023-08-06T03:25:43;2.97;;;0.93;;
30335;SDS011;17142;47.990;7.846;2023-08-06T03:28:09;2.97;;;0.50;;
30335;SDS011;17142;47.990;7.846;2023-08-06T03:30:34;1.10;;;0.60;;
30335;SDS011;17142;47.990;7.846;2023-08-06T03:33:00;3.80;;;0.60;;
30335;SDS011;17142;47.990;7.846;2023-08-06T03:35:26;1.10;;;0.70;;
30335;SDS011;17142;47.990;7.846;2023-08-06T03:37:54;1.23;;;0.50;;
30335;SDS011;17142;47.990;7.846;2023-08-06T03:40:19;1.40;;;0.60;;
30335;SDS011;17142;47.990;7.846;2023-08-06T03:42:47;1.43;;;0.50;;
30335;SDS011;17142;47.990;7.846;2023-08-06T03:45:13;1.00;;;0.63;;
30335;SDS011;17142;47.990;7.846;2023-08-06T03:47:46;1.30;;;0.63;;
30335;SDS011;17142;47.990;7.846;2023-08-06T03:50:12;1.37;;;0.50;;
30335;SDS011;17142;47.990;7.846;2023-08-06T03:52:37;1.33;;;0.40;;
30335;SDS011;17142;47.990;7.846;2023-08-06T03:55:05;0.90;;;0.90;;
30335;SDS011;17142;47.990;7.846;2023-08-06T03:57:31;0.97;;;0.60;;
30335;SDS011;17142;47.990;7.846;2023-08-06T03:59:57;1.23;;;0.60;;
30335;SDS011;17142;47.990;7.846;2023-08-06T04:02:22;0.97;;;0.73;;
30335;SDS011;17142;47.990;7.846;2023-08-06T04:04:48;3.47;;;0.67;;
30335;SDS011;17142;47.990;7.846;2023-08-06T04:07:18;1.20;;;0.67;;
30335;SDS011;17142;47.990;7.846;2023-08-06T04:10:00;1.27;;;0.60;;
30335;SDS011;17142;47.990;7.846;2023-08-06T04:12:30;3.70;;;0.60;;
30335;SDS011;17142;47.990;7.846;2023-08-06T04:15:00;1.03;;;0.43;;
30335;SDS011;17142;47.990;7.846;2023-08-06T04:17:26;1.23;;;0.60;;
30335;SDS011;17142;47.990;7.846;2023-08-06T04:19:52;1.53;;;0.53;;
30335;SDS011;17142;47.990;7.846;2023-08-06T04:22:21;6.33;;;0.90;;
30335;SDS011;17142;47.990;7.846;2023-08-06T04:24:47;1.80;;;1.03;;
30335;SDS011;17142;47.990;7.846;2023-08-06T04:27:13;2.17;;;0.93;;
30335;SDS011;17142;47.990;7.846;2023-08-06T04:29:42;1.03;;;0.53;;
30335;SDS011;17142;47.990;7.846;2023-08-06T04:32:09;5.40;;;1.00;;
30335;SDS011;17142;47.990;7.846;2023-08-06T04:34:35;3.30;;;0.93;;
30335;SDS011;17142;47.990;7.846;2023-08-06T04:37:06;2.83;;;1.07;;
30335;SDS011;17142;47.990;7.846;2023-08-06T04:39:34;2.83;;;1.00;;
30335;SDS011;17142;47.990;7.846;2023-08-06T04:42:02;3.23;;;1.07;;
30335;SDS011;17142;47.990;7.846;2023-08-06T04:44:30;2.33;;;1.30;;
30335;SDS011;17142;47.990;7.846;2023-08-06T04:46:56;4.00;;;1.23;;
30335;SDS011;17142;47.990;7.846;2023-08-06T04:49:21;7.10;;;1.70;;
30335;SDS011;17142;47.990;7.846;2023-08-06T04:51:54;12.73;;;2.37;;
30335;SDS011;17142;47.990;7.846;2023-08-06T04:54:20;3.17;;;1.10;;
30335;SDS011;17142;47.990;7.846;2023-08-06T04:56:46;4.60;;;1.30;;
30335;SDS011;17142;47.990;7.846;2023-08-06T04:59:13;6.53;;;1.13;;
30335;SDS011;17142;47.990;7.846;2023-08-06T05:01:39;4.57;;;1.20;;
30335;SDS011;17142;47.990;7.846;2023-08-06T05:04:07;3.33;;;1.30;;
30335;SDS011;17142;47.990;7.846;2023-08-06T05:06:32;4.60;;;2.13;;
30335;SDS011;17142;47.990;7.846;2023-08-06T05:09:03;6.90;;;1.50;;
30335;SDS011;17142;47.990;7.846;2023-08-06T05:11:29;3.03;;;1.73;;
30335;SDS011;17142;47.990;7.846;2023-08-06T05:13:55;6.43;;;1.70;;
30335;SDS011;17142;47.990;7.846;2023-08-06T05:16:20;2.67;;;1.23;;
30335;SDS011;17142;47.990;7.846;2023-08-06T05:18:46;8.33;;;2.00;;
30335;SDS011;17142;47.990;7.846;2023-08-06T05:21:12;4.13;;;1.53;;
30335;SDS011;17142;47.990;7.846;2023-08-06T05:23:41;3.87;;;1.63;;
30335;SDS011;17142;47.990;7.846;2023-08-06T05:26:09;3.63;;;2.10;;
30335;SDS011;17142;47.990;7.846;2023-08-06T05:28:37;5.70;;;1.57;;
30335;SDS011;17142;47.990;7.846;2023-08-06T05:31:03;10.20;;;1.80;;
30335;SDS011;17142;47.990;7.846;2023-08-06T05:33:29;4.03;;;1.53;;
30335;SDS011;17142;47.990;7.846;2023-08-06T05:35:55;3.10;;;1.33;;
30335;SDS011;17142;47.990;7.846;2023-08-06T05:38:21;3.43;;;1.27;;
30335;SDS011;17142;47.990;7.846;2023-08-06T05:40:49;5.23;;;2.10;;
30335;SDS011;17142;47.990;7.846;2023-08-06T05:43:19;4.73;;;1.63;;
30335;SDS011;17142;47.990;7.846;2023-08-06T05:45:45;3.80;;;1.73;;
30335;SDS011;17142;47.990;7.846;2023-08-06T05:48:14;4.07;;;1.40;;
30335;SDS011;17142;47.990;7.846;2023-08-06T05:50:44;6.20;;;1.27;;
30335;SDS011;17142;47.990;7.846;2023-08-06T05:53:09;2.83;;;0.97;;
30335;SDS011;17142;47.990;7.846;2023-08-06T05:55:35;4.70;;;1.50;;
30335;SDS011;17142;47.990;7.846;2023-08-06T05:58:01;6.40;;;1.63;;
30335;SDS011;17142;47.990;7.846;2023-08-06T06:00:26;2.90;;;1.50;;
30335;SDS011;17142;47.990;7.846;2023-08-06T06:02:52;3.93;;;1.10;;
30335;SDS011;17142;47.990;7.846;2023-08-06T06:05:18;3.37;;;1.13;;
30335;SDS011;17142;47.990;7.846;2023-08-06T06:07:43;3.87;;;1.07;;
30335;SDS011;17142;47.990;7.846;2023-08-06T06:10:11;5.87;;;1.00;;
30335;SDS011;17142;47.990;7.846;2023-08-06T06:12:38;5.10;;;1.43;;
30335;SDS011;17142;47.990;7.846;2023-08-06T06:15:06;2.70;;;1.10;;
30335;SDS011;17142;47.990;7.846;2023-08-06T06:17:36;2.37;;;1.10;;
30335;SDS011;17142;47.990;7.846;2023-08-06T06:20:02;3.37;;;1.10;;
30335;SDS011;17142;47.990;7.846;2023-08-06T06:22:31;0.93;;;0.60;;
30335;SDS011;17142;47.990;7.846;2023-08-06T06:24:58;2.20;;;1.07;;
30335;SDS011;17142;47.990;7.846;2023-08-06T06:27:26;1.53;;;1.17;;
30335;SDS011;17142;47.990;7.846;2023-08-06T06:29:52;2.33;;;0.70;;
30335;SDS011;17142;47.990;7.846;2023-08-06T06:32:19;4.00;;;1.53;;
30335;SDS011;17142;47.990;7.846;2023-08-06T06:34:48;1.77;;;1.10;;
30335;SDS011;17142;47.990;7.846;2023-08-06T06:37:16;2.20;;;0.93;;
30335;SDS011;17142;47.990;7.846;2023-08-06T06:39:41;3.63;;;0.67;;
30335;SDS011;17142;47.990;7.846;2023-08-06T06:42:07;3.90;;;0.97;;
30335;SDS011;17142;47.990;7.846;2023-08-06T06:44:32;2.00;;;0.93;;
30335;SDS011;17142;47.990;7.846;2023-08-06T06:46:58;3.00;;;0.67;;
30335;SDS011;17142;47.990;7.846;2023-08-06T06:49:24;1.47;;;0.60;;
30335;SDS011;17142;47.990;7.846;2023-08-06T06:51:50;9.40;;;1.47;;
30335;SDS011;17142;47.990;7.846;2023-08-06T06:54:16;1.53;;;1.20;;
30335;SDS011;17142;47.990;7.846;2023-08-06T06:56:41;5.23;;;1.03;;
30335;SDS011;17142;47.990;7.846;2023-08-06T06:59:07;3.43;;;1.60;;
30335;SDS011;17142;47.990;7.846;2023-08-06T07:01:33;5.10;;;0.80;;
30335;SDS011;17142;47.990;7.846;2023-08-06T07:03:58;1.93;;;0.80;;
30335;SDS011;17142;47.990;7.846;2023-08-06T07:06:32;1.03;;;0.80;;
30335;SDS011;17142;47.990;7.846;2023-08-06T07:08:57;5.33;;;1.37;;
30335;SDS011;17142;47.990;7.846;2023-08-06T07:11:23;3.60;;;1.60;;
30335;SDS011;17142;47.990;7.846;2023-08-06T07:13:49;1.67;;;0.50;;
30335;SDS011;17142;47.990;7.846;2023-08-06T07:16:21;1.63;;;0.67;;
30335;SDS011;17142;47.990;7.846;2023-08-06T07:18:46;0.60;;;0.60;;
30335;SDS011;17142;47.990;7.846;2023-08-06T07:21:12;1.70;;;0.80;;
30335;SDS011;17142;47.990;7.846;2023-08-06T07:23:37;1.27;;;0.67;;
30335;SDS011;17142;47.990;7.846;2023-08-06T07:26:03;2.13;;;0.70;;
30335;SDS011;17142;47.990;7.846;2023-08-06T07:28:31;4.00;;;0.60;;
30335;SDS011;17142;47.990;7.846;2023-08-06T07:30:56;1.03;;;0.50;;
30335;SDS011;17142;47.990;7.846;2023-08-06T07:33:22;2.07;;;0.63;;
30335;SDS011;17142;47.990;7.846;2023-08-06T07:35:48;0.80;;;0.67;;
30335;SDS011;17142;47.990;7.846;2023-08-06T07:38:13;5.50;;;0.70;;
30335;SDS011;17142;47.990;7.846;2023-08-06T07:40:39;1.27;;;0.60;;
30335;SDS011;17142;47.990;7.846;2023-08-06T07:43:05;2.23;;;0.80;;
30335;SDS011;17142;47.990;7.846;2023-08-06T07:45:34;0.70;;;0.40;;
30335;SDS011;17142;47.990;7.846;2023-08-06T07:48:00;3.20;;;0.40;;
30335;SDS011;17142;47.990;7.846;2023-08-06T07:50:27;0.87;;;0.40;;
30335;SDS011;17142;47.990;7.846;2023-08-06T07:52:55;1.03;;;0.40;;
30335;SDS011;17142;47.990;7.846;2023-08-06T07:55:21;1.43;;;0.43;;
30335;SDS011;17142;47.990;7.846;2023-08-06T07:57:46;0.70;;;0.43;;
30335;SDS011;17142;47.990;7.846;2023-08-06T08:00:12;1.10;;;0.50;;
30335;SDS011;17142;47.990;7.846;2023-08-06T08:02:40;0.60;;;0.50;;
30335;SDS011;17142;47.990;7.846;2023-08-06T08:05:06;1.43;;;0.40;;
30335;SDS011;17142;47.990;7.846;2023-08-06T08:07:33;0.60;;;0.40;;
30335;SDS011;17142;47.990;7.846;2023-08-06T08:09:58;1.27;;;0.40;;
30335;SDS011;17142;47.990;7.846;2023-08-06T08:12:24;0.40;;;0.37;;
30335;SDS011;17142;47.990;7.846;2023-08-06T08:14:50;3.83;;;0.47;;
30335;SDS011;17142;47.990;7.846;2023-08-06T08:17:15;4.47;;;0.40;;
30335;SDS011;17142;47.990;7.846;2023-08-06T08:19:41;0.60;;;0.40;;
30335;SDS011;17142;47.990;7.846;2023-08-06T08:22:07;0.50;;;0.30;;
30335;SDS011;17142;47.990;7.846;2023-08-06T08:24:32;0.60;;;0.37;;
30335;SDS011;17142;47.990;7.846;2023-08-06T08:26:58;1.10;;;0.57;;
30335;SDS011;17142;47.990;7.846;2023-08-06T08:29:26;0.43;;;0.30;;
30335;SDS011;17142;47.990;7.846;2023-08-06T08:31:54;2.33;;;0.70;;
30335;SDS011;17142;47.990;7.846;2023-08-06T08:34:20;0.93;;;0.50;;
30335;SDS011;17142;47.990;7.846;2023-08-06T08:36:48;0.80;;;0.40;;
30335;SDS011;17142;47.990;7.846;2023-08-06T08:39:14;0.77;;;0.57;;
30335;SDS011;17142;47.990;7.846;2023-08-06T08:41:40;1.57;;;0.40;;
30335;SDS011;17142;47.990;7.846;2023-08-06T08:44:09;2.00;;;0.63;;
30335;SDS011;17142;47.990;7.846;2023-08-06T08:46:36;0.50;;;0.40;;
30335;SDS011;17142;47.990;7.846;2023-08-06T08:49:05;2.20;;;0.60;;
30335;SDS011;17142;47.990;7.846;2023-08-06T08:51:32;1.13;;;0.73;;
30335;SDS011;17142;47.990;7.846;2023-08-06T08:53:59;0.50;;;0.50;;
30335;SDS011;17142;47.990;7.846;2023-08-06T08:56:35;1.60;;;0.70;;
30335;SDS011;17142;47.990;7.846;2023-08-06T08:59:01;1.33;;;0.47;;
30335;SDS011;17142;47.990;7.846;2023-08-06T09:01:27;0.87;;;0.40;;
30335;SDS011;17142;47.990;7.846;2023-08-06T09:03:57;1.10;;;0.63;;
30335;SDS011;17142;47.990;7.846;2023-08-06T09:06:25;0.60;;;0.40;;
30335;SDS011;17142;47.990;7.846;2023-08-06T09:09:12;0.80;;;0.40;;
30335;SDS011;17142;47.990;7.846;2023-08-06T09:11:42;0.43;;;0.40;;
30335;SDS011;17142;47.990;7.846;2023-08-06T09:14:13;1.00;;;0.43;;
30335;SDS011;17142;47.990;7.846;2023-08-06T09:16:38;1.40;;;0.40;;
30335;SDS011;17142;47.990;7.846;2023-08-06T09:19:11;0.40;;;0.30;;
30335;SDS011;17142;47.990;7.846;2023-08-06T09:21:40;1.37;;;0.70;;
30335;SDS011;17142;47.990;7.846;2023-08-06T09:24:09;0.60;;;0.40;;
30335;SDS011;17142;47.990;7.846;2023-08-06T09:26:39;1.27;;;0.30;;
30335;SDS011;17142;47.990;7.846;2023-08-06T09:29:05;0.77;;;0.40;;
30335;SDS011;17142;47.990;7.846;2023-08-06T09:31:41;0.50;;;0.40;;
30335;SDS011;17142;47.990;7.846;2023-08-06T09:34:26;0.47;;;0.37;;
30335;SDS011;17142;47.990;7.846;2023-08-06T09:36:52;1.53;;;0.40;;
30335;SDS011;17142;47.990;7.846;2023-08-06T09:39:19;0.40;;;0.30;;
30335;SDS011;17142;47.990;7.846;2023-08-06T09:41:58;0.70;;;0.40;;
30335;SDS011;17142;47.990;7.846;2023-08-06T09:44:25;0.73;;;0.30;;
30335;SDS011;17142;47.990;7.846;2023-08-06T09:46:56;0.70;;;0.50;;
30335;SDS011;17142;47.990;7.846;2023-08-06T09:49:27;0.40;;;0.30;;
30335;SDS011;17142;47.990;7.846;2023-08-06T09:52:02;2.00;;;0.30;;
30335;SDS011;17142;47.990;7.846;2023-08-06T09:54:29;0.50;;;0.40;;
30335;SDS011;17142;47.990;7.846;2023-08-06T09:56:57;0.60;;;0.53;;
30335;SDS011;17142;47.990;7.846;2023-08-06T09:59:25;1.07;;;0.30;;
30335;SDS011;17142;47.990;7.846;2023-08-06T10:01:51;0.70;;;0.50;;
30335;SDS011;17142;47.990;7.846;2023-08-06T10:04:21;3.60;;;0.93;;
30335;SDS011;17142;47.990;7.846;2023-08-06T10:06:47;0.40;;;0.40;;
30335;SDS011;17142;47.990;7.846;2023-08-06T10:09:15;1.17;;;0.47;;
30335;SDS011;17142;47.990;7.846;2023-08-06T10:11:44;0.43;;;0.33;;
30335;SDS011;17142;47.990;7.846;2023-08-06T10:14:28;1.03;;;0.70;;
30335;SDS011;17142;47.990;7.846;2023-08-06T10:17:00;1.27;;;0.50;;
30335;SDS011;17142;47.990;7.846;2023-08-06T10:19:26;1.23;;;0.40;;
30335;SDS011;17142;47.990;7.846;2023-08-06T10:22:09;1.07;;;0.40;;
30335;SDS011;17142;47.990;7.846;2023-08-06T10:24:58;0.90;;;0.50;;
30335;SDS011;17142;47.990;7.846;2023-08-06T10:27:31;1.43;;;0.60;;
30335;SDS011;17142;47.990;7.846;2023-08-06T10:32:57;0.70;;;0.40;;
30335;SDS011;17142;47.990;7.846;2023-08-06T10:38:04;0.60;;;0.40;;
30335;SDS011;17142;47.990;7.846;2023-08-06T10:45:52;0.73;;;0.40;;
30335;SDS011;17142;47.990;7.846;2023-08-06T10:51:06;1.00;;;0.50;;
30335;SDS011;17142;47.990;7.846;2023-08-06T10:53:33;1.43;;;0.50;;
30335;SDS011;17142;47.990;7.846;2023-08-06T10:55:59;2.20;;;0.93;;
30335;SDS011;17142;47.990;7.846;2023-08-06T10:58:25;0.70;;;0.50;;
30335;SDS011;17142;47.990;7.846;2023-08-06T11:00:51;2.90;;;0.63;;
30335;SDS011;17142;47.990;7.846;2023-08-06T11:03:17;1.53;;;0.40;;
30335;SDS011;17142;47.990;7.846;2023-08-06T11:05:49;0.60;;;0.40;;
30335;SDS011;17142;47.990;7.846;2023-08-06T11:08:28;1.97;;;0.60;;
30335;SDS011;17142;47.990;7.846;2023-08-06T11:11:07;0.50;;;0.40;;
30335;SDS011;17142;47.990;7.846;2023-08-06T11:13:36;0.70;;;0.50;;
30335;SDS011;17142;47.990;7.846;2023-08-06T11:16:05;1.03;;;0.73;;
30335;SDS011;17142;47.990;7.846;2023-08-06T11:18:31;0.60;;;0.50;;
30335;SDS011;17142;47.990;7.846;2023-08-06T11:21:01;0.90;;;0.50;;
30335;SDS011;17142;47.990;7.846;2023-08-06T11:23:27;1.80;;;0.70;;
30335;SDS011;17142;47.990;7.846;2023-08-06T11:25:56;0.90;;;0.60;;
30335;SDS011;17142;47.990;7.846;2023-08-06T11:28:23;1.13;;;0.50;;
30335;SDS011;17142;47.990;7.846;2023-08-06T11:30:49;2.93;;;1.23;;
30335;SDS011;17142;47.990;7.846;2023-08-06T11:33:21;2.17;;;1.20;;
30335;SDS011;17142;47.990;7.846;2023-08-06T11:35:53;1.77;;;1.20;;
30335;SDS011;17142;47.990;7.846;2023-08-06T11:38:21;1.07;;;0.97;;
30335;SDS011;17142;47.990;7.846;2023-08-06T11:40:50;1.00;;;0.67;;
30335;SDS011;17142;47.990;7.846;2023-08-06T11:43:18;1.40;;;0.57;;
30335;SDS011;17142;47.990;7.846;2023-08-06T11:45:48;0.80;;;0.63;;
30335;SDS011;17142;47.990;7.846;2023-08-06T11:48:19;1.10;;;0.50;;
30335;SDS011;17142;47.990;7.846;2023-08-06T11:50:45;0.50;;;0.40;;
30335;SDS011;17142;47.990;7.846;2023-08-06T11:53:14;1.10;;;0.40;;
30335;SDS011;17142;47.990;7.846;2023-08-06T11:55:40;1.73;;;0.47;;
30335;SDS011;17142;47.990;7.846;2023-08-06T11:58:07;0.83;;;0.50;;
30335;SDS011;17142;47.990;7.846;2023-08-06T12:00:34;0.50;;;0.30;;
30335;SDS011;17142;47.990;7.846;2023-08-06T12:03:01;1.33;;;0.43;;
30335;SDS011;17142;47.990;7.846;2023-08-06T12:05:30;0.40;;;0.30;;
30335;SDS011;17142;47.990;7.846;2023-08-06T12:07:57;1.00;;;0.43;;
30335;SDS011;17142;47.990;7.846;2023-08-06T12:10:24;0.40;;;0.30;;
30335;SDS011;17142;47.990;7.846;2023-08-06T12:12:50;1.00;;;0.50;;
30335;SDS011;17142;47.990;7.846;2023-08-06T12:15:16;2.80;;;0.60;;
30335;SDS011;17142;47.990;7.846;2023-08-06T12:17:44;0.80;;;0.40;;
30335;SDS011;17142;47.990;7.846;2023-08-06T12:20:16;0.90;;;0.47;;
30335;SDS011;17142;47.990;7.846;2023-08-06T12:22:42;1.07;;;0.53;;
30335;SDS011;17142;47.990;7.846;2023-08-06T12:25:09;0.93;;;0.50;;
30335;SDS011;17142;47.990;7.846;2023-08-06T12:27:41;0.50;;;0.40;;
30335;SDS011;17142;47.990;7.846;2023-08-06T12:30:07;0.70;;;0.40;;
30335;SDS011;17142;47.990;7.846;2023-08-06T12:32:37;0.87;;;0.53;;
30335;SDS011;17142;47.990;7.846;2023-08-06T12:35:05;1.90;;;0.50;;
30335;SDS011;17142;47.990;7.846;2023-08-06T12:37:38;1.40;;;0.50;;
30335;SDS011;17142;47.990;7.846;2023-08-06T12:40:04;0.97;;;0.60;;
30335;SDS011;17142;47.990;7.846;2023-08-06T12:42:32;0.60;;;0.50;;
30335;SDS011;17142;47.990;7.846;2023-08-06T12:44:58;0.73;;;0.40;;
30335;SDS011;17142;47.990;7.846;2023-08-06T12:47:24;0.60;;;0.40;;
30335;SDS011;17142;47.990;7.846;2023-08-06T12:49:49;1.00;;;0.60;;
30335;SDS011;17142;47.990;7.846;2023-08-06T12:52:15;1.17;;;0.73;;
30335;SDS011;17142;47.990;7.846;2023-08-06T12:54:41;0.50;;;0.40;;
30335;SDS011;17142;47.990;7.846;2023-08-06T12:57:07;1.60;;;0.60;;
30335;SDS011;17142;47.990;7.846;2023-08-06T12:59:33;1.83;;;0.50;;
30335;SDS011;17142;47.990;7.846;2023-08-06T13:02:01;2.73;;;0.73;;
30335;SDS011;17142;47.990;7.846;2023-08-06T13:04:27;1.37;;;0.73;;
30335;SDS011;17142;47.990;7.846;2023-08-06T13:06:55;0.60;;;0.37;;
30335;SDS011;17142;47.990;7.846;2023-08-06T13:09:21;0.70;;;0.50;;
30335;SDS011;17142;47.990;7.846;2023-08-06T13:11:47;0.90;;;0.60;;
30335;SDS011;17142;47.990;7.846;2023-08-06T13:14:15;1.00;;;0.73;;
30335;SDS011;17142;47.990;7.846;2023-08-06T13:16:41;1.00;;;0.57;;
30335;SDS011;17142;47.990;7.846;2023-08-06T13:19:08;1.37;;;0.70;;
30335;SDS011;17142;47.990;7.846;2023-08-06T13:21:35;2.43;;;0.60;;
30335;SDS011;17142;47.990;7.846;2023-08-06T13:24:20;0.53;;;0.37;;
30335;SDS011;17142;47.990;7.846;2023-08-06T13:26:46;0.50;;;0.50;;
30335;SDS011;17142;47.990;7.846;2023-08-06T13:29:12;2.27;;;0.93;;
30335;SDS011;17142;47.990;7.846;2023-08-06T13:31:37;1.23;;;0.60;;
30335;SDS011;17142;47.990;7.846;2023-08-06T13:34:06;1.17;;;0.60;;
30335;SDS011;17142;47.990;7.846;2023-08-06T13:36:32;0.80;;;0.50;;
30335;SDS011;17142;47.990;7.846;2023-08-06T13:39:00;0.80;;;0.47;;
30335;SDS011;17142;47.990;7.846;2023-08-06T13:41:26;0.77;;;0.57;;
30335;SDS011;17142;47.990;7.846;2023-08-06T13:43:54;1.27;;;0.70;;
30335;SDS011;17142;47.990;7.846;2023-08-06T13:46:20;1.17;;;0.53;;
30335;SDS011;17142;47.990;7.846;2023-08-06T13:48:46;0.53;;;0.47;;
30335;SDS011;17142;47.990;7.846;2023-08-06T13:51:12;2.90;;;0.53;;
30335;SDS011;17142;47.990;7.846;2023-08-06T13:53:41;1.47;;;1.00;;
30335;SDS011;17142;47.990;7.846;2023-08-06T13:56:09;0.80;;;0.47;;
30335;SDS011;17142;47.990;7.846;2023-08-06T13:58:40;1.00;;;0.80;;
30335;SDS011;17142;47.990;7.846;2023-08-06T14:01:05;0.80;;;0.60;;
30335;SDS011;17142;47.990;7.846;2023-08-06T14:03:31;1.50;;;0.57;;
30335;SDS011;17142;47.990;7.846;2023-08-06T14:05:59;1.10;;;0.60;;
30335;SDS011;17142;47.990;7.846;2023-08-06T14:08:25;1.07;;;0.80;;
30335;SDS011;17142;47.990;7.846;2023-08-06T14:10:53;1.07;;;0.77;;
30335;SDS011;17142;47.990;7.846;2023-08-06T14:13:19;0.60;;;0.53;;
30335;SDS011;17142;47.990;7.846;2023-08-06T14:15:47;0.93;;;0.70;;
30335;SDS011;17142;47.990;7.846;2023-08-06T14:18:13;1.50;;;0.60;;
30335;SDS011;17142;47.990;7.846;2023-08-06T14:20:41;1.60;;;0.77;;
30335;SDS011;17142;47.990;7.846;2023-08-06T14:23:08;1.30;;;0.50;;
30335;SDS011;17142;47.990;7.846;2023-08-06T14:25:33;0.80;;;0.53;;
30335;SDS011;17142;47.990;7.846;2023-08-06T14:27:59;0.90;;;0.53;;
30335;SDS011;17142;47.990;7.846;2023-08-06T14:30:25;0.80;;;0.67;;
30335;SDS011;17142;47.990;7.846;2023-08-06T14:32:51;2.70;;;1.00;;
30335;SDS011;17142;47.990;7.846;2023-08-06T14:35:17;2.00;;;0.93;;
30335;SDS011;17142;47.990;7.846;2023-08-06T14:37:42;1.03;;;0.93;;
30335;SDS011;17142;47.990;7.846;2023-08-06T14:40:13;2.10;;;0.90;;
30335;SDS011;17142;47.990;7.846;2023-08-06T14:42:41;1.73;;;0.50;;
30335;SDS011;17142;47.990;7.846;2023-08-06T14:45:06;0.50;;;0.50;;
30335;SDS011;17142;47.990;7.846;2023-08-06T14:47:35;0.50;;;0.40;;
30335;SDS011;17142;47.990;7.846;2023-08-06T14:50:03;1.00;;;0.70;;
30335;SDS011;17142;47.990;7.846;2023-08-06T14:52:29;0.90;;;0.63;;
30335;SDS011;17142;47.990;7.846;2023-08-06T14:54:55;1.17;;;0.73;;
30335;SDS011;17142;47.990;7.846;2023-08-06T14:57:21;0.50;;;0.40;;
30335;SDS011;17142;47.990;7.846;2023-08-06T14:59:52;0.60;;;0.50;;
30335;SDS011;17142;47.990;7.846;2023-08-06T15:02:18;1.37;;;0.97;;
30335;SDS011;17142;47.990;7.846;2023-08-06T15:04:46;1.13;;;0.80;;
30335;SDS011;17142;47.990;7.846;2023-08-06T15:07:15;0.90;;;0.80;;
30335;SDS011;17142;47.990;7.846;2023-08-06T15:09:40;1.77;;;0.80;;